createdAt,value
2018-09-05T00:01:42.012Z,16.75
2018-09-05T00:04:54.044Z,16.40
2018-09-05T00:08:05.907Z,16.85
2018-09-05T00:11:17.273Z,16.30
2018-09-05T00:14:28.621Z,15.80
2018-09-05T00:17:39.973Z,17.62
2018-09-05T00:20:52.041Z,13.60
2018-09-05T00:24:03.078Z,17.95
2018-09-05T00:27:14.870Z,14.25
2018-09-05T00:30:25.987Z,15.55
2018-09-05T00:33:37.207Z,17.55
2018-09-05T00:36:48.953Z,17.50
2018-09-05T00:40:00.844Z,13.70
2018-09-05T00:43:13.749Z,14.60
2018-09-05T00:46:24.930Z,12.37
2018-09-05T00:49:36.938Z,14.38
2018-09-05T00:52:48.071Z,15.75
2018-09-05T00:55:59.100Z,14.70
2018-09-05T00:59:10.874Z,13.28
2018-09-05T01:02:22.808Z,14.50
2018-09-05T01:05:34.481Z,13.20
2018-09-05T01:08:46.501Z,14.07
2018-09-05T01:11:57.891Z,15.83
2018-09-05T01:15:09.829Z,14.45
2018-09-05T01:18:21.084Z,18.50
2018-09-05T01:21:32.355Z,13.95
2018-09-05T01:24:44.149Z,15.10
2018-09-05T01:27:55.441Z,19.70
2018-09-05T01:31:06.935Z,17.67
2018-09-05T01:34:18.605Z,16.42
2018-09-05T01:37:30.575Z,17.25
2018-09-05T01:40:41.969Z,16.70
2018-09-05T01:43:54.427Z,14.45
2018-09-05T01:47:06.022Z,16.45
2018-09-05T01:50:17.982Z,13.60
2018-09-05T01:53:29.866Z,14.98
2018-09-05T01:56:41.918Z,17.80
2018-09-05T01:59:53.722Z,15.60
2018-09-05T02:03:05.730Z,13.93
2018-09-05T02:06:17.234Z,15.03
2018-09-05T02:09:28.832Z,15.32
2018-09-05T02:12:40.560Z,15.85
2018-09-05T02:15:51.931Z,19.37
2018-09-05T02:19:03.599Z,15.90
2018-09-05T02:22:15.120Z,16.48
2018-09-05T02:25:26.362Z,13.90
2018-09-05T02:28:38.211Z,15.50
2018-09-05T02:31:49.297Z,18.82
2018-09-05T02:35:00.491Z,16.27
2018-09-05T02:38:12.545Z,15.08
2018-09-05T02:41:23.721Z,16.17
2018-09-05T02:44:36.266Z,14.18
2018-09-05T02:47:48.296Z,15.68
2018-09-05T02:50:59.424Z,14.28
2018-09-05T02:54:10.690Z,12.98
2018-09-05T02:57:22.826Z,14.47
2018-09-05T03:00:33.925Z,14.07
2018-09-05T03:03:45.090Z,17.25
2018-09-05T03:06:56.581Z,17.57
2018-09-05T03:10:08.059Z,17.05
2018-09-05T03:13:19.631Z,15.88
2018-09-05T03:16:31.394Z,16.85
2018-09-05T03:19:43.391Z,16.25
2018-09-05T03:22:55.481Z,16.50
2018-09-05T03:26:07.453Z,14.65
2018-09-05T03:29:18.619Z,15.30
2018-09-05T03:32:29.955Z,15.48
2018-09-05T03:35:41.948Z,17.00
2018-09-05T03:38:53.549Z,15.03
2018-09-05T03:42:05.311Z,18.12
2018-09-05T03:45:17.052Z,14.10
2018-09-05T03:48:28.099Z,14.78
2018-09-05T03:51:39.240Z,15.00
2018-09-05T03:54:50.385Z,12.88
2018-09-05T03:58:01.438Z,14.75
2018-09-05T04:01:13.220Z,14.13
2018-09-05T04:04:24.738Z,15.38
2018-09-05T04:07:35.914Z,13.98
2018-09-05T04:10:47.816Z,15.40
2018-09-05T04:13:58.842Z,13.32
2018-09-05T04:17:10.322Z,14.00
2018-09-05T04:20:22.293Z,13.05
2018-09-05T04:23:39.104Z,16.75
2018-09-05T04:26:50.993Z,15.10
2018-09-05T04:30:02.265Z,15.38
2018-09-05T04:33:13.403Z,17.37
2018-09-05T04:36:24.427Z,14.65
2018-09-05T04:39:35.870Z,13.65
2018-09-05T04:42:48.051Z,15.63
2018-09-05T04:45:59.575Z,16.02
2018-09-05T04:49:11.179Z,16.82
2018-09-05T04:52:23.091Z,13.95
2018-09-05T04:55:35.175Z,15.90
2018-09-05T04:58:47.068Z,16.95
2018-09-05T05:01:59.088Z,15.70
2018-09-05T05:05:10.926Z,14.43
2018-09-05T05:08:22.120Z,15.53
2018-09-05T05:11:33.606Z,16.87
2018-09-05T05:14:45.093Z,13.65
2018-09-05T05:17:56.900Z,13.38
2018-09-05T05:21:08.234Z,14.85
2018-09-05T05:24:20.206Z,16.50
2018-09-05T05:27:31.526Z,13.75
2018-09-05T05:30:43.356Z,14.65
2018-09-05T05:33:55.374Z,12.80
2018-09-05T05:37:06.611Z,15.80
2018-09-05T05:40:17.843Z,14.60
2018-09-05T05:43:29.021Z,15.80
2018-09-05T05:46:40.885Z,16.35
2018-09-05T05:49:52.428Z,15.20
2018-09-05T05:53:03.590Z,14.15
2018-09-05T05:56:15.144Z,14.18
2018-09-05T05:59:26.705Z,17.00
2018-09-05T06:02:38.666Z,16.17
2018-09-05T06:05:50.804Z,16.40
2018-09-05T06:09:02.474Z,15.58
2018-09-05T06:12:13.695Z,11.88
2018-09-05T06:15:26.178Z,15.78
2018-09-05T06:18:37.287Z,15.70
2018-09-05T06:21:48.387Z,15.72
2018-09-05T06:25:00.115Z,16.62
2018-09-05T06:28:11.999Z,14.98
2018-09-05T06:31:23.403Z,15.60
2018-09-05T06:34:34.673Z,17.05
2018-09-05T06:37:45.782Z,15.85
2018-09-05T06:40:57.885Z,15.35
2018-09-05T06:44:09.985Z,13.60
2018-09-05T06:47:21.113Z,14.60
2018-09-05T06:50:32.320Z,16.93
2018-09-05T06:53:43.575Z,14.85
2018-09-05T06:56:55.316Z,13.62
2018-09-05T07:00:07.508Z,13.83
2018-09-05T07:03:18.866Z,14.85
2018-09-05T07:06:30.392Z,16.90
2018-09-05T07:09:41.472Z,13.48
2018-09-05T07:12:52.796Z,15.53
2018-09-05T07:16:04.215Z,16.60
2018-09-05T07:19:16.500Z,15.55
2018-09-05T07:22:27.742Z,18.10
2018-09-05T07:25:38.989Z,15.88
2018-09-05T07:28:50.203Z,17.42
2018-09-05T07:32:01.341Z,17.90
2018-09-05T07:35:12.454Z,18.77
2018-09-05T07:38:24.269Z,15.53
2018-09-05T07:41:36.133Z,17.40
2018-09-05T07:44:47.571Z,16.00
2018-09-05T07:48:00.050Z,16.70
2018-09-05T07:51:11.894Z,16.42
2018-09-05T07:54:23.850Z,15.15
2018-09-05T07:57:35.282Z,17.95
2018-09-05T08:00:47.317Z,13.53
2018-09-05T08:03:58.854Z,19.73
2018-09-05T08:07:10.042Z,18.10
2018-09-05T08:10:21.572Z,18.87
2018-09-05T08:13:32.615Z,15.93
2018-09-05T08:16:43.845Z,17.07
2018-09-05T08:19:55.591Z,20.00
2018-09-05T08:23:06.721Z,18.27
2018-09-05T08:26:18.632Z,21.75
2018-09-05T08:29:30.465Z,18.07
2018-09-05T08:32:41.577Z,16.75
2018-09-05T08:35:53.753Z,15.72
2018-09-05T08:39:11.150Z,18.52
2018-09-05T08:42:23.182Z,17.77
2018-09-05T08:45:34.781Z,17.65
2018-09-05T08:48:46.873Z,16.67
2018-09-05T08:51:58.840Z,15.32
2018-09-05T08:55:10.075Z,16.55
2018-09-05T08:58:22.251Z,16.10
2018-09-05T09:01:34.038Z,15.05
2018-09-05T09:04:46.284Z,15.20
2018-09-05T09:07:57.723Z,12.25
2018-09-05T09:11:09.690Z,9.63
2018-09-05T09:14:20.827Z,9.40
2018-09-05T09:17:31.969Z,10.20
2018-09-05T09:20:43.270Z,7.85
2018-09-05T09:23:54.498Z,8.25
2018-09-05T09:27:06.042Z,7.03
2018-09-05T09:30:18.133Z,7.70
2018-09-05T09:33:30.142Z,9.00
2018-09-05T09:36:41.974Z,6.22
2018-09-05T09:39:53.322Z,8.15
2018-09-05T09:43:05.329Z,8.70
2018-09-05T09:46:16.360Z,9.83
2018-09-05T09:49:28.335Z,9.78
2018-09-05T09:52:40.035Z,9.85
2018-09-05T09:55:51.558Z,12.90
2018-09-05T09:59:03.406Z,9.63
2018-09-05T10:02:20.770Z,6.72
2018-09-05T10:05:37.725Z,11.80
2018-09-05T10:08:54.701Z,7.92
2018-09-05T10:12:12.429Z,10.08
2018-09-05T10:15:29.451Z,8.50
2018-09-05T10:18:43.783Z,9.97
2018-09-05T10:21:55.575Z,9.90
2018-09-05T10:25:07.707Z,8.03
2018-09-05T10:28:19.361Z,8.40
2018-09-05T10:31:30.636Z,8.67
2018-09-05T10:34:41.717Z,8.53
2018-09-05T10:37:53.132Z,8.30
2018-09-05T10:41:04.369Z,10.03
2018-09-05T10:44:15.744Z,9.67
2018-09-05T10:47:26.958Z,8.80
2018-09-05T10:50:39.105Z,9.35
2018-09-05T10:53:50.859Z,7.72
2018-09-05T10:57:03.458Z,9.73
2018-09-05T11:00:14.895Z,8.70
2018-09-05T11:03:25.746Z,8.93
2018-09-05T11:06:37.301Z,9.33
2018-09-05T11:09:48.439Z,8.90
2018-09-05T11:12:59.883Z,9.70
2018-09-05T11:16:11.326Z,8.10
2018-09-05T11:19:22.397Z,7.62
2018-09-05T11:22:33.957Z,9.00
2018-09-05T11:25:44.836Z,7.20
2018-09-05T11:28:56.261Z,9.70
2018-09-05T11:32:08.473Z,8.53
2018-09-05T11:35:19.700Z,8.00
2018-09-05T11:38:30.807Z,8.40
2018-09-05T11:41:42.038Z,6.97
2018-09-05T11:44:52.880Z,7.70
2018-09-05T11:48:03.834Z,7.70
2018-09-05T11:51:15.251Z,8.57
2018-09-05T11:54:26.225Z,9.43
2018-09-05T11:57:37.389Z,7.93
2018-09-05T12:00:48.808Z,5.73
2018-09-05T12:03:59.896Z,9.40
2018-09-05T12:07:12.285Z,8.07
2018-09-05T12:10:23.510Z,8.03
2018-09-05T12:13:34.706Z,8.50
2018-09-05T12:16:46.308Z,7.50
2018-09-05T12:19:57.852Z,9.80
2018-09-05T12:23:09.083Z,8.37
2018-09-05T12:26:20.775Z,10.20
2018-09-05T12:29:32.632Z,8.13
2018-09-05T12:32:43.756Z,8.30
2018-09-05T12:35:54.673Z,8.50
2018-09-05T12:39:10.328Z,9.30
2018-09-05T12:42:21.296Z,9.53
2018-09-05T12:45:32.357Z,8.20
2018-09-05T12:48:43.325Z,8.60
2018-09-05T12:51:55.037Z,9.23
2018-09-05T12:55:07.629Z,9.43
2018-09-05T12:58:19.448Z,8.30
2018-09-05T13:01:30.803Z,8.47
2018-09-05T13:04:43.650Z,8.43
2018-09-05T13:08:02.961Z,8.73
2018-09-05T13:11:15.640Z,8.10
2018-09-05T13:14:27.941Z,10.27
2018-09-05T13:17:39.353Z,8.30
2018-09-05T13:20:52.425Z,6.70
2018-09-05T13:24:03.485Z,9.20
2018-09-05T13:27:14.410Z,9.33
2018-09-05T13:30:25.318Z,6.60
2018-09-05T13:33:36.786Z,8.13
2018-09-05T13:36:47.562Z,8.57
2018-09-05T13:39:58.412Z,8.47
2018-09-05T13:43:09.274Z,7.43
2018-09-05T13:46:21.344Z,8.50
2018-09-05T13:49:32.577Z,8.50
2018-09-05T13:52:44.007Z,10.33
2018-09-05T13:55:55.656Z,9.97
2018-09-05T13:59:06.940Z,9.27
2018-09-05T14:02:18.596Z,8.70
2018-09-05T14:05:29.648Z,7.47
2018-09-05T14:08:40.571Z,7.23
2018-09-05T14:11:51.632Z,7.43
2018-09-05T14:15:02.654Z,6.10
2018-09-05T14:18:13.965Z,7.50
2018-09-05T14:21:25.100Z,8.13
2018-09-05T14:24:36.314Z,6.60
2018-09-05T14:27:48.435Z,9.40
2018-09-05T14:31:02.946Z,7.13
2018-09-05T14:34:14.571Z,9.20
2018-09-05T14:37:36.221Z,8.80
2018-09-05T14:40:47.612Z,8.83
2018-09-05T14:43:59.014Z,8.70
2018-09-05T14:47:10.084Z,7.10
2018-09-05T14:50:21.389Z,7.37
2018-09-05T14:53:32.903Z,8.47
2018-09-05T14:56:44.430Z,7.90
2018-09-05T14:59:55.366Z,7.30
2018-09-05T15:03:06.566Z,7.07
2018-09-05T15:06:17.601Z,7.33
2018-09-05T15:09:29.368Z,9.00
2018-09-05T15:12:40.942Z,7.40
2018-09-05T15:15:52.902Z,8.60
2018-09-05T15:19:03.947Z,7.50
2018-09-05T15:22:14.845Z,7.97
2018-09-05T15:25:25.868Z,8.10
2018-09-05T15:28:37.081Z,7.17
2018-09-05T15:31:47.910Z,7.30
2018-09-05T15:34:59.247Z,8.00
2018-09-05T15:38:10.274Z,6.87
2018-09-05T15:41:21.374Z,8.30
2018-09-05T15:44:32.195Z,7.03
2018-09-05T15:47:43.361Z,7.77
2018-09-05T15:50:57.357Z,12.43
2018-09-05T15:54:08.844Z,8.07
2018-09-05T15:57:27.812Z,7.57
2018-09-05T16:00:38.796Z,8.67
2018-09-05T16:03:50.120Z,8.77
2018-09-05T16:07:01.078Z,6.70
2018-09-05T16:10:12.681Z,8.70
2018-09-05T16:13:24.210Z,7.10
2018-09-05T16:16:35.000Z,7.20
2018-09-05T16:19:46.119Z,9.43
2018-09-05T16:22:57.435Z,7.27
2018-09-05T16:26:08.291Z,7.43
2018-09-05T16:29:19.489Z,7.47
2018-09-05T16:32:30.574Z,9.87
2018-09-05T16:35:41.802Z,10.20
2018-09-05T16:38:59.569Z,7.70
2018-09-05T16:42:10.913Z,8.97
2018-09-05T16:45:24.457Z,8.50
2018-09-05T16:48:35.874Z,8.53
2018-09-05T16:51:47.736Z,7.40
2018-09-05T16:54:59.200Z,6.63
2018-09-05T16:58:10.557Z,6.87
2018-09-05T17:01:22.155Z,8.20
2018-09-05T17:04:33.696Z,6.40
2018-09-05T17:07:45.181Z,7.28
2018-09-05T17:10:56.972Z,6.93
2018-09-05T17:14:09.031Z,7.13
2018-09-05T17:17:21.397Z,6.57
2018-09-05T17:20:39.359Z,6.83
2018-09-05T17:23:52.226Z,7.67
2018-09-05T17:27:03.050Z,5.80
2018-09-05T17:30:14.047Z,6.00
2018-09-05T17:33:25.214Z,5.50
2018-09-05T17:36:36.168Z,6.97
2018-09-05T17:39:47.554Z,7.33
2018-09-05T17:42:59.328Z,6.47
2018-09-05T17:46:10.325Z,7.92
2018-09-05T17:49:21.537Z,6.92
2018-09-05T17:52:33.427Z,8.38
2018-09-05T17:55:45.009Z,7.55
2018-09-05T17:58:56.782Z,7.35
2018-09-05T18:02:08.381Z,6.33
2018-09-05T18:05:19.693Z,7.62
2018-09-05T18:08:31.556Z,8.88
2018-09-05T18:11:43.362Z,6.65
2018-09-05T18:14:55.365Z,5.92
2018-09-05T18:18:07.088Z,8.68
2018-09-05T18:21:19.020Z,6.87
2018-09-05T18:24:30.432Z,6.67
2018-09-05T18:27:41.763Z,7.92
2018-09-05T18:30:54.173Z,7.10
2018-09-05T18:34:06.221Z,7.35
2018-09-05T18:38:20.591Z,8.10
2018-09-05T18:41:32.436Z,6.60
2018-09-05T18:44:44.401Z,5.58
2018-09-05T18:47:55.939Z,7.78
2018-09-05T18:51:07.234Z,7.25
2018-09-05T18:54:18.633Z,6.50
2018-09-05T18:57:32.224Z,7.97
2018-09-05T19:00:43.390Z,7.50
2018-09-05T19:03:55.472Z,7.65
2018-09-05T19:07:07.390Z,7.87
2018-09-05T19:10:19.231Z,7.60
2018-09-05T19:13:30.533Z,7.08
2018-09-05T19:16:42.469Z,8.80
2018-09-05T19:19:53.912Z,7.20
2018-09-05T19:23:04.947Z,5.50
2018-09-05T19:26:15.972Z,7.53
2018-09-05T19:29:27.201Z,11.03
2018-09-05T19:32:40.897Z,8.15
2018-09-05T19:35:52.444Z,7.97
2018-09-05T19:39:03.993Z,8.08
2018-09-05T19:42:15.603Z,8.08
2018-09-05T19:45:27.945Z,8.90
2018-09-05T19:48:40.246Z,7.80
2018-09-05T19:51:53.607Z,8.45
2018-09-05T19:55:05.582Z,10.20
2018-09-05T19:58:18.984Z,7.65
2018-09-05T20:01:30.635Z,9.13
2018-09-05T20:04:43.357Z,9.98
2018-09-05T20:07:55.005Z,9.05
2018-09-05T20:11:06.657Z,10.48
2018-09-05T20:14:18.998Z,9.73
2018-09-05T20:17:30.536Z,9.55
2018-09-05T20:20:41.669Z,7.90
2018-09-05T20:23:52.975Z,9.90
2018-09-05T20:27:04.169Z,9.85
2018-09-05T20:30:16.150Z,26.05
2018-09-05T20:33:27.318Z,48.70
2018-09-05T20:36:38.551Z,11.60
2018-09-05T20:39:50.292Z,13.50
2018-09-05T20:43:02.557Z,9.88
2018-09-05T20:46:14.305Z,10.70
2018-09-05T20:49:25.873Z,10.15
2018-09-05T20:52:37.845Z,9.80
2018-09-05T20:55:48.891Z,10.82
2018-09-05T20:59:00.162Z,8.75
2018-09-05T21:02:11.965Z,9.63
2018-09-05T21:05:23.044Z,8.70
2018-09-05T21:08:34.392Z,8.70
2018-09-05T21:11:45.681Z,9.95
2018-09-05T21:14:57.697Z,11.50
2018-09-05T21:18:09.126Z,9.90
2018-09-05T21:21:21.102Z,9.18
2018-09-05T21:24:32.095Z,8.93
2018-09-05T21:27:43.177Z,11.12
2018-09-05T21:30:54.314Z,9.78
2018-09-05T21:34:06.070Z,9.13
2018-09-05T21:37:17.864Z,10.93
2018-09-05T21:40:29.366Z,8.05
2018-09-05T21:43:40.467Z,9.35
2018-09-05T21:46:52.040Z,9.83
2018-09-05T21:50:10.309Z,11.40
2018-09-05T21:53:21.947Z,9.53
2018-09-05T21:56:32.970Z,9.55
2018-09-05T21:59:44.751Z,9.93
2018-09-05T22:02:56.524Z,9.83
2018-09-05T22:06:07.827Z,11.18
2018-09-05T22:09:19.467Z,9.70
2018-09-05T22:12:30.736Z,11.40
2018-09-05T22:15:47.546Z,11.33
2018-09-05T22:18:59.819Z,9.25
2018-09-05T22:22:11.372Z,9.15
2018-09-05T22:25:22.766Z,10.80
2018-09-05T22:28:33.884Z,9.88
2018-09-05T22:31:45.825Z,8.03
2018-09-05T22:34:56.964Z,8.75
2018-09-05T22:38:08.261Z,9.70
2018-09-05T22:41:19.500Z,9.30
2018-09-05T22:44:48.522Z,9.65
2018-09-05T22:50:29.878Z,11.43
2018-09-05T22:54:04.559Z,9.88
2018-09-05T22:59:40.230Z,11.70
2018-09-05T23:03:27.825Z,8.70
2018-09-05T23:07:52.233Z,10.00
2018-09-05T23:11:21.197Z,11.18
2018-09-05T23:14:49.491Z,9.45
2018-09-05T23:19:29.563Z,10.28
2018-09-05T23:22:57.545Z,9.78
2018-09-05T23:26:08.687Z,11.12
2018-09-05T23:29:20.622Z,13.68
2018-09-05T23:32:31.755Z,9.95
2018-09-05T23:35:43.698Z,11.83
2018-09-05T23:38:55.825Z,10.48
2018-09-05T23:42:08.259Z,11.28
2018-09-05T23:45:19.452Z,9.15
2018-09-05T23:48:31.467Z,8.40
2018-09-05T23:51:43.272Z,9.70
2018-09-05T23:54:54.294Z,11.25
2018-09-05T23:58:05.814Z,9.70
